Time;durP1;ratioP1;P1;durP2;ratioP2;P2;SDS_P1;SDS_P2;PMS_P1;PMS_P2;Temp;Humidity;BMP_temperature;BMP_pressure;BME280_temperature;BME280_humidity;BME280_pressure;Samples;Min_cycle;Max_cycle;Signal;HPM_P1;HPM_P2
2024/01/08 00:01:26;;;;;;;;;7.33;7.00;;;;;21.38;41.93;102046.76;112189;1254;19532;-36
2024/01/08 00:03:54;;;;;;;;;4.00;4.00;;;;;21.37;41.97;102049.91;112296;1247;20014;-35
2024/01/08 00:06:21;;;;;;;;;5.00;5.00;;;;;21.35;42.23;102053.86;112170;1262;19335;-35
2024/01/08 00:08:49;;;;;;;;;5.00;5.00;;;;;21.36;42.12;102052.61;112219;1246;19683;-36
2024/01/08 00:11:16;;;;;;;;;5.00;4.67;;;;;21.37;41.98;102055.08;112186;1246;20091;-35
2024/01/08 00:13:43;;;;;;;;;7.00;6.00;;;;;21.36;41.92;102060.89;112172;1247;21010;-35
2024/01/08 00:16:11;;;;;;;;;5.00;5.00;;;;;21.36;42.17;102062.91;111958;1261;340273;-36
2024/01/08 00:18:38;;;;;;;;;4.00;4.00;;;;;21.36;41.83;102064.02;112172;1246;21278;-35
2024/01/08 00:21:05;;;;;;;;;4.50;4.50;;;;;21.36;41.93;102067.34;112219;1246;20956;-35
2024/01/08 00:23:34;;;;;;;;;5.00;5.00;;;;;21.36;42.05;102065.54;112195;1262;19813;-37
2024/01/08 00:26:01;;;;;;;;;7.00;7.00;;;;;21.36;41.79;102066.74;112209;1261;18612;-35
2024/01/08 00:28:28;;;;;;;;;5.00;5.00;;;;;21.35;41.76;102069.70;112189;1247;21074;-37
2024/01/08 00:30:56;;;;;;;;;4.00;4.00;;;;;21.35;41.53;102071.52;112204;1260;19693;-37
2024/01/08 00:33:23;;;;;;;;;4.67;4.00;;;;;21.36;41.81;102076.02;112270;1253;18672;-38
2024/01/08 00:35:52;;;;;;;;;7.00;5.00;;;;;21.35;41.71;102077.89;112263;1245;20861;-37
2024/01/08 00:38:19;;;;;;;;;7.00;7.00;;;;;21.35;41.84;102078.77;112217;1252;19733;-37
2024/01/08 00:40:47;;;;;;;;;4.50;4.50;;;;;21.36;41.70;102080.25;112206;1248;19956;-35
2024/01/08 00:43:14;;;;;;;;;8.00;7.00;;;;;21.35;41.83;102084.71;112253;1245;21860;-36
2024/01/08 00:45:41;;;;;;;;;5.00;5.00;;;;;21.35;41.94;102079.77;112180;1260;18199;-36
2024/01/08 00:48:09;;;;;;;;;4.00;4.00;;;;;21.35;41.82;102081.48;112283;1244;20302;-36
2024/01/08 00:50:36;;;;;;;;;5.33;5.33;;;;;21.34;41.61;102085.02;112209;1245;20595;-35
2024/01/08 00:53:03;;;;;;;;;5.00;4.50;;;;;21.35;41.57;102087.48;112327;1244;19593;-35
2024/01/08 00:55:31;;;;;;;;;7.00;4.00;;;;;21.34;41.55;102091.81;112149;1245;20071;-36
2024/01/08 00:57:59;;;;;;;;;7.00;5.00;;;;;21.34;41.64;102099.45;112214;1247;20790;-36
2024/01/08 01:00:26;;;;;;;;;8.00;7.00;;;;;21.35;41.50;102106.08;112195;1244;19598;-36
2024/01/08 01:02:54;;;;;;;;;5.00;5.00;;;;;21.34;41.51;102112.38;112356;1247;20077;-39
2024/01/08 01:05:21;;;;;;;;;5.50;5.00;;;;;21.33;41.58;102115.31;112166;1244;20764;-35
2024/01/08 01:07:48;;;;;;;;;7.00;6.50;;;;;21.32;41.49;102124.34;112199;1246;19706;-35
2024/01/08 01:10:15;;;;;;;;;5.00;5.00;;;;;21.33;41.50;102126.86;112215;1260;18694;-36
2024/01/08 01:12:43;;;;;;;;;7.00;5.00;;;;;21.33;41.56;102121.23;112199;1252;20711;-36
2024/01/08 01:15:11;;;;;;;;;4.00;4.00;;;;;21.32;41.42;102123.09;112282;1260;18114;-36
2024/01/08 01:17:38;;;;;;;;;5.00;5.00;;;;;21.33;41.46;102125.23;112194;1244;20014;-37
2024/01/08 01:20:05;;;;;;;;;5.00;5.00;;;;;21.31;41.43;102125.63;112238;1247;20761;-35
2024/01/08 01:22:33;;;;;;;;;6.00;5.00;;;;;21.31;41.41;102135.45;112184;1252;20519;-35
2024/01/08 01:25:00;;;;;;;;;2.00;2.00;;;;;21.31;41.60;102132.94;112257;1260;19976;-36
2024/01/08 01:27:27;;;;;;;;;7.00;5.00;;;;;21.31;41.46;102135.44;112188;1248;20876;-36
2024/01/08 01:29:55;;;;;;;;;7.00;6.50;;;;;21.32;41.50;102135.08;112335;1253;19675;-36
2024/01/08 01:32:22;;;;;;;;;5.00;4.00;;;;;21.32;41.27;102140.04;112162;1260;18593;-35
2024/01/08 01:34:49;;;;;;;;;11.00;7.00;;;;;21.32;41.24;102141.60;112323;1244;20940;-36
2024/01/08 01:37:16;;;;;;;;;6.00;6.00;;;;;21.31;41.35;102145.80;112187;1256;19540;-35
2024/01/08 01:39:44;;;;;;;;;6.00;5.00;;;;;21.31;41.39;102142.70;112221;1254;21555;-35
2024/01/08 01:42:11;;;;;;;;;7.00;7.00;;;;;21.31;41.41;102146.09;112217;1244;18504;-35
2024/01/08 01:44:38;;;;;;;;;5.33;5.00;;;;;21.31;41.31;102145.17;112175;1244;18709;-35
2024/01/08 01:47:06;;;;;;;;;4.00;4.00;;;;;21.30;41.28;102143.55;112247;1244;20043;-36
2024/01/08 01:49:33;;;;;;;;;4.50;4.50;;;;;21.30;41.16;102140.96;112165;1260;19533;-36
2024/01/08 01:52:00;;;;;;;;;4.00;4.00;;;;;21.30;41.27;102141.39;112264;1252;19481;-36
2024/01/08 01:54:28;;;;;;;;;5.67;5.00;;;;;21.30;41.25;102145.23;112183;1244;18866;-35
2024/01/08 01:56:55;;;;;;;;;5.00;5.00;;;;;21.30;41.27;102146.25;112302;1253;21525;-35
2024/01/08 01:59:22;;;;;;;;;5.00;5.00;;;;;21.29;41.21;102148.64;112179;1244;18449;-35
2024/01/08 02:01:49;;;;;;;;;5.00;5.00;;;;;21.29;41.19;102143.88;112323;1248;21363;-35
2024/01/08 02:04:17;;;;;;;;;5.00;4.00;;;;;21.30;41.15;102143.38;112176;1247;19684;-35
2024/01/08 02:06:44;;;;;;;;;7.00;5.00;;;;;21.29;41.16;102143.34;112179;1246;19609;-36
2024/01/08 02:09:13;;;;;;;;;7.00;7.00;;;;;21.30;41.05;102146.90;112182;1260;18784;-36
2024/01/08 02:11:40;;;;;;;;;6.50;5.00;;;;;21.31;41.11;102149.92;112263;1244;20810;-37
2024/01/08 02:14:08;;;;;;;;;6.00;6.00;;;;;21.29;41.21;102152.13;112255;1260;18209;-35
2024/01/08 02:16:36;;;;;;;;;4.00;4.00;;;;;21.31;41.04;102161.96;112256;1252;19902;-35
2024/01/08 02:19:03;;;;;;;;;7.00;5.00;;;;;21.28;41.08;102160.36;112262;1244;19610;-36
2024/01/08 02:21:30;;;;;;;;;7.00;5.00;;;;;21.29;41.06;102166.02;112284;1244;18745;-35
2024/01/08 02:23:58;;;;;;;;;5.00;5.00;;;;;21.28;41.09;102170.14;112251;1260;19937;-36
2024/01/08 02:26:25;;;;;;;;;4.00;4.00;;;;;21.28;40.88;102175.70;112207;1244;19414;-35
2024/01/08 02:28:52;;;;;;;;;3.00;3.00;;;;;21.28;40.99;102179.76;112193;1244;19708;-35
2024/01/08 02:31:19;;;;;;;;;5.00;5.00;;;;;21.29;40.91;102182.72;112160;1260;18843;-35
2024/01/08 02:33:47;;;;;;;;;4.50;4.50;;;;;21.28;41.04;102186.95;112205;1247;19663;-35
2024/01/08 02:36:14;;;;;;;;;5.00;5.00;;;;;21.28;41.18;102189.50;112199;1244;19619;-35
2024/01/08 02:38:41;;;;;;;;;5.00;4.00;;;;;21.27;40.84;102192.42;112179;1260;19931;-35
2024/01/08 02:41:09;;;;;;;;;6.00;6.00;;;;;21.28;40.79;102199.15;112235;1244;20617;-35
2024/01/08 02:43:36;;;;;;;;;7.00;5.00;;;;;21.28;40.75;102202.20;112191;1260;20111;-35
2024/01/08 02:46:03;;;;;;;;;5.50;5.00;;;;;21.29;40.89;102200.02;112270;1244;20051;-36
2024/01/08 02:48:31;;;;;;;;;5.00;5.00;;;;;21.29;40.87;102198.41;112165;1260;18410;-35
2024/01/08 02:50:58;;;;;;;;;7.00;7.00;;;;;21.28;40.91;102201.49;112286;1260;20408;-36
2024/01/08 02:53:25;;;;;;;;;7.00;7.00;;;;;21.28;40.66;102201.66;112193;1254;19965;-35
2024/01/08 02:55:52;;;;;;;;;5.00;5.00;;;;;21.28;40.79;102204.91;112213;1244;22012;-35
2024/01/08 02:58:20;;;;;;;;;4.00;4.00;;;;;21.27;40.62;102213.73;112166;1244;19641;-36
2024/01/08 03:00:47;;;;;;;;;4.33;4.33;;;;;21.28;40.81;102222.89;112184;1244;21276;-36
2024/01/08 03:03:14;;;;;;;;;4.00;4.00;;;;;21.27;40.67;102227.64;112216;1260;19335;-35
2024/01/08 03:05:42;;;;;;;;;5.50;5.50;;;;;21.28;40.87;102228.84;112158;1245;19592;-35
2024/01/08 03:08:09;;;;;;;;;5.00;5.00;;;;;21.27;40.59;102228.33;112231;1260;18504;-36
2024/01/08 03:10:36;;;;;;;;;5.00;5.00;;;;;21.27;40.68;102233.02;112156;1246;21950;-36
2024/01/08 03:13:04;;;;;;;;;4.00;4.00;;;;;21.26;40.89;102237.09;112255;1260;19996;-36
2024/01/08 03:15:31;;;;;;;;;5.50;5.50;;;;;21.26;40.66;102238.02;112234;1253;20158;-35
2024/01/08 03:17:58;;;;;;;;;7.00;4.50;;;;;21.26;40.65;102240.48;112310;1244;20759;-36
2024/01/08 03:20:25;;;;;;;;;5.50;5.00;;;;;21.27;40.41;102242.49;112225;1244;18842;-36
2024/01/08 03:22:53;;;;;;;;;4.00;4.00;;;;;21.26;40.53;102247.92;112234;1247;20055;-36
2024/01/08 03:25:20;;;;;;;;;4.00;4.00;;;;;21.25;40.77;102250.91;112168;1260;19328;-35
2024/01/08 03:27:47;;;;;;;;;4.00;4.00;;;;;21.25;41.06;102255.55;112155;1260;18208;-36
2024/01/08 03:30:15;;;;;;;;;5.00;4.00;;;;;21.25;40.67;102255.65;112247;1244;19988;-36
2024/01/08 03:32:42;;;;;;;;;8.00;5.00;;;;;21.26;40.45;102253.33;112139;1244;20781;-36
2024/01/08 03:35:10;;;;;;;;;5.00;4.00;;;;;21.25;40.51;102254.84;112230;1254;21000;-35
2024/01/08 03:37:37;;;;;;;;;4.00;4.00;;;;;21.26;40.38;102261.17;112164;1244;20011;-35
2024/01/08 03:40:06;;;;;;;;;5.00;5.00;;;;;21.26;40.37;102261.83;112207;1260;19331;-36
2024/01/08 03:42:33;;;;;;;;;5.00;4.50;;;;;21.27;40.58;102264.96;112168;1244;19764;-37
2024/01/08 03:45:00;;;;;;;;;6.00;6.00;;;;;21.26;40.50;102267.16;112175;1253;18600;-38
2024/01/08 03:47:28;;;;;;;;;4.00;4.00;;;;;21.26;40.50;102269.45;112178;1247;20926;-36
2024/01/08 03:49:55;;;;;;;;;5.00;5.00;;;;;21.26;40.37;102269.35;112215;1244;19600;-35
2024/01/08 03:52:23;;;;;;;;;4.00;4.00;;;;;21.25;40.32;102263.83;112152;1244;20041;-35
2024/01/08 03:54:50;;;;;;;;;5.00;5.00;;;;;21.25;40.49;102263.07;112195;1244;21820;-35
2024/01/08 03:57:18;;;;;;;;;5.00;5.00;;;;;21.25;40.53;102262.23;112192;1248;19660;-35
2024/01/08 03:59:45;;;;;;;;;5.50;5.00;;;;;21.25;40.45;102271.41;112257;1253;18619;-35
2024/01/08 04:02:13;;;;;;;;;7.00;7.00;;;;;21.27;40.46;102272.64;112162;1244;22085;-35
2024/01/08 04:04:40;;;;;;;;;5.00;4.33;;;;;21.25;40.29;102273.04;112218;1247;19601;-36
2024/01/08 04:07:07;;;;;;;;;5.00;5.00;;;;;21.24;40.34;102276.84;112144;1260;20047;-35
2024/01/08 04:09:35;;;;;;;;;7.00;5.00;;;;;21.25;40.27;102282.40;112194;1254;20752;-37
2024/01/08 04:12:04;;;;;;;;;4.00;4.00;;;;;21.24;40.47;102284.26;112195;1244;19669;-37
2024/01/08 04:14:31;;;;;;;;;7.00;7.00;;;;;21.24;40.23;102286.65;112168;1253;19910;-35
2024/01/08 04:16:58;;;;;;;;;5.00;5.00;;;;;21.24;40.27;102291.93;112311;1244;20762;-35
2024/01/08 04:19:26;;;;;;;;;6.50;6.50;;;;;21.25;40.52;102293.42;112193;1260;18532;-35
2024/01/08 04:21:53;;;;;;;;;7.00;7.00;;;;;21.25;40.12;102298.33;112327;1244;19902;-35
2024/01/08 04:24:20;;;;;;;;;10.50;10.00;;;;;21.25;40.20;102298.87;112139;1244;21982;-35
2024/01/08 04:26:47;;;;;;;;;5.00;5.00;;;;;21.25;40.15;102303.66;112201;1254;19494;-35
2024/01/08 04:29:15;;;;;;;;;7.00;7.00;;;;;21.24;40.27;102307.15;112205;1244;20174;-36
2024/01/08 04:31:42;;;;;;;;;9.00;7.50;;;;;21.24;40.41;102311.55;112144;1260;21231;-36
2024/01/08 04:34:10;;;;;;;;;8.00;7.50;;;;;21.23;40.06;102311.31;112256;1244;19593;-39
2024/01/08 04:36:37;;;;;;;;;11.00;10.00;;;;;21.23;40.17;102312.87;112148;1244;20047;-35
2024/01/08 04:39:05;;;;;;;;;10.00;8.00;;;;;21.23;40.20;102307.88;112223;1244;20793;-37
2024/01/08 04:41:33;;;;;;;;;11.00;8.00;;;;;21.24;40.25;102311.43;112242;1244;19917;-35
2024/01/08 04:44:00;;;;;;;;;8.00;7.50;;;;;21.24;40.13;102310.34;112239;1244;21280;-36
2024/01/08 04:46:27;;;;;;;;;8.50;8.50;;;;;21.24;40.05;102313.83;112166;1260;19343;-38
2024/01/08 04:48:54;;;;;;;;;8.00;8.00;;;;;21.24;40.02;102311.60;112301;1253;18694;-36
2024/01/08 04:51:22;;;;;;;;;10.00;9.50;;;;;21.24;40.01;102309.48;112157;1260;19976;-37
2024/01/08 04:53:50;;;;;;;;;8.00;7.00;;;;;21.25;40.05;102312.71;112321;1253;20812;-36
2024/01/08 04:56:17;;;;;;;;;7.50;7.50;;;;;21.26;40.18;102317.70;112146;1248;20341;-36
2024/01/08 04:58:44;;;;;;;;;8.67;8.67;;;;;21.24;40.14;102319.39;112326;1244;20088;-36
2024/01/08 05:01:12;;;;;;;;;8.67;8.00;;;;;21.24;40.11;102327.19;112173;1244;20782;-35
2024/01/08 05:03:39;;;;;;;;;11.00;8.00;;;;;21.23;39.82;102328.80;112349;1260;18219;-36
2024/01/08 05:06:06;;;;;;;;;7.00;7.00;;;;;21.22;40.07;102328.39;112209;1253;20160;-36
2024/01/08 05:08:33;;;;;;;;;8.00;8.00;;;;;21.23;40.05;102334.96;112403;1245;20827;-36
2024/01/08 05:11:01;;;;;;;;;10.00;10.00;;;;;21.23;40.21;102334.20;112272;1260;18212;-36
2024/01/08 05:13:28;;;;;;;;;10.67;10.67;;;;;21.24;40.04;102336.09;112428;1260;18874;-36
2024/01/08 05:15:55;;;;;;;;;7.50;7.50;;;;;21.23;39.98;102335.89;112266;1244;20899;-35
2024/01/08 05:18:23;;;;;;;;;7.00;7.00;;;;;21.22;39.72;102333.26;112158;1260;18627;-35
2024/01/08 05:20:50;;;;;;;;;10.50;8.00;;;;;21.23;40.00;102337.19;112309;1253;20567;-35
2024/01/08 05:23:17;;;;;;;;;7.00;7.00;;;;;21.22;39.99;102338.54;112176;1244;20793;-35
2024/01/08 05:25:44;;;;;;;;;7.50;7.50;;;;;21.23;39.94;102338.02;112319;1247;19975;-35
2024/01/08 05:28:12;;;;;;;;;7.50;7.50;;;;;21.23;39.76;102338.19;112187;1244;20078;-38
2024/01/08 05:30:39;;;;;;;;;7.00;7.00;;;;;21.22;39.86;102336.90;112351;1259;20755;-35
2024/01/08 05:33:06;;;;;;;;;9.00;8.00;;;;;21.22;39.75;102339.50;112230;1244;19653;-36
2024/01/08 05:35:34;;;;;;;;;10.00;8.00;;;;;21.22;39.86;102343.18;112232;1244;19952;-36
2024/01/08 05:38:02;;;;;;;;;10.00;8.00;;;;;21.23;39.84;102344.77;112196;1244;20775;-35
2024/01/08 05:40:30;;;;;;;;;7.00;7.00;;;;;21.23;39.84;102338.77;112316;1253;19990;-35
2024/01/08 05:42:57;;;;;;;;;8.00;7.00;;;;;21.23;39.73;102343.80;112171;1260;20288;-35
2024/01/08 05:45:24;;;;;;;;;7.00;7.00;;;;;21.24;39.78;102353.40;112261;1247;20820;-35
2024/01/08 05:47:53;;;;;;;;;10.00;8.00;;;;;21.24;39.82;102349.20;112198;1244;19674;-36
2024/01/08 05:50:21;;;;;;;;;10.00;10.00;;;;;21.24;39.70;102356.72;112262;1260;18631;-36
2024/01/08 05:52:48;;;;;;;;;10.00;10.00;;;;;21.23;39.61;102353.45;112194;1245;20824;-35
2024/01/08 05:55:16;;;;;;;;;7.00;7.00;;;;;21.23;39.76;102352.73;112254;1244;19904;-35
2024/01/08 05:57:43;;;;;;;;;7.00;5.00;;;;;21.24;39.70;102352.14;112165;1244;20076;-35
2024/01/08 06:00:10;;;;;;;;;10.50;9.00;;;;;21.23;39.51;102355.73;112293;1244;19351;-36
2024/01/08 06:02:37;;;;;;;;;8.00;7.00;;;;;21.22;39.76;102359.34;112156;1244;19623;-37
2024/01/08 06:05:06;;;;;;;;;10.00;10.00;;;;;21.22;39.43;102361.05;112160;1244;20103;-37
2024/01/08 06:07:33;;;;;;;;;7.50;7.00;;;;;21.23;39.70;102363.14;112140;1244;20681;-35
2024/01/08 06:10:01;;;;;;;;;8.00;8.00;;;;;21.23;39.63;102364.65;112251;1260;19862;-36
2024/01/08 06:12:29;;;;;;;;;8.00;7.00;;;;;21.23;39.64;102366.13;112209;1247;20008;-35
2024/01/08 06:14:57;;;;;;;;;11.00;8.50;;;;;21.22;39.41;102367.30;112207;1260;19344;-35
2024/01/08 06:17:24;;;;;;;;;9.50;8.00;;;;;21.21;39.30;102374.89;112249;1260;18246;-37
2024/01/08 06:19:51;;;;;;;;;5.00;5.00;;;;;21.22;39.48;102379.30;112222;1260;18590;-37
2024/01/08 06:22:19;;;;;;;;;8.00;8.00;;;;;21.22;39.60;102379.25;112225;1260;19635;-38
2024/01/08 06:24:46;;;;;;;;;7.00;7.00;;;;;21.21;39.75;102377.36;112127;1260;18258;-36
2024/01/08 06:27:13;;;;;;;;;8.00;7.00;;;;;21.22;39.58;102385.08;112209;1260;18632;-35
2024/01/08 06:29:40;;;;;;;;;7.67;7.00;;;;;21.22;39.42;102390.20;112161;1254;22055;-36
2024/01/08 06:32:08;;;;;;;;;7.00;7.00;;;;;21.23;39.39;102393.38;112206;1244;20761;-35
2024/01/08 06:34:35;;;;;;;;;7.00;7.00;;;;;21.22;39.43;102401.80;112205;1260;18866;-35
2024/01/08 06:37:03;;;;;;;;;5.00;5.00;;;;;21.22;39.37;102405.58;112192;1248;20788;-36
2024/01/08 06:39:30;;;;;;;;;7.00;7.00;;;;;21.23;39.24;102406.20;112260;1244;19651;-36
2024/01/08 06:41:57;;;;;;;;;7.00;5.00;;;;;21.22;39.23;102410.23;112160;1247;20387;-36
2024/01/08 06:44:25;;;;;;;;;7.00;7.00;;;;;21.21;39.22;102414.64;112282;1260;19340;-35
2024/01/08 06:46:52;;;;;;;;;9.00;7.00;;;;;21.21;39.20;102421.27;112157;1248;19615;-35
2024/01/08 06:49:19;;;;;;;;;8.00;7.00;;;;;21.20;39.47;102427.05;112277;1260;18525;-35
2024/01/08 06:51:47;;;;;;;;;7.00;7.00;;;;;21.23;39.34;102433.66;112164;1253;20729;-36
2024/01/08 06:54:14;;;;;;;;;7.00;7.00;;;;;21.40;38.91;102435.05;112159;1253;19736;-36
2024/01/08 06:56:41;;;;;;;;;8.00;6.67;;;;;21.46;39.02;102437.71;112187;1260;19222;-35
2024/01/08 06:59:09;;;;;;;;;8.00;7.00;;;;;21.44;39.05;102443.65;112181;1244;20782;-36
2024/01/08 07:01:36;;;;;;;;;10.00;8.00;;;;;21.37;39.47;102443.02;112220;1244;20783;-35
2024/01/08 07:04:03;;;;;;;;;8.33;8.33;;;;;21.38;39.55;102445.30;112232;1260;18719;-35
2024/01/08 07:06:32;;;;;;;;;5.00;5.00;;;;;21.38;39.56;102449.63;112248;1248;20753;-35
2024/01/08 07:08:59;;;;;;;;;7.00;7.00;;;;;21.54;39.65;102453.55;112176;1253;19598;-36
2024/01/08 07:11:26;;;;;;;;;8.33;7.00;;;;;21.46;39.97;102453.36;112135;1244;20374;-35
2024/01/08 07:13:54;;;;;;;;;8.00;7.00;;;;;21.36;40.59;102449.87;112071;1246;19346;-35
2024/01/08 07:16:21;;;;;;;;;8.50;7.00;;;;;21.28;41.09;102451.15;112059;1246;20916;-36
2024/01/08 07:18:48;;;;;;;;;7.00;7.00;;;;;21.23;40.81;102468.23;112051;1246;18898;-36
2024/01/08 07:21:16;;;;;;;;;8.00;7.00;;;;;21.26;40.48;102470.02;112140;1246;20771;-36
2024/01/08 07:23:43;;;;;;;;;7.00;7.00;;;;;21.36;39.67;102478.38;112096;1246;19735;-35
2024/01/08 07:26:11;;;;;;;;;5.00;5.00;;;;;21.27;39.72;102478.68;112116;1262;18611;-35
2024/01/08 07:28:38;;;;;;;;;7.00;7.00;;;;;21.24;40.49;102482.86;112127;1262;19546;-36
2024/01/08 07:31:05;;;;;;;;;5.50;5.50;;;;;21.22;40.59;102488.64;112156;1246;19728;-34
2024/01/08 07:33:33;;;;;;;;;7.00;5.00;;;;;21.21;40.60;102494.26;112135;1248;20065;-35
2024/01/08 07:36:01;;;;;;;;;4.67;4.67;;;;;21.19;40.54;102503.20;112135;1246;20646;-36
2024/01/08 07:38:28;;;;;;;;;6.33;5.00;;;;;21.19;40.47;102499.53;112105;1262;20476;-37
2024/01/08 07:40:55;;;;;;;;;7.00;5.50;;;;;21.18;40.36;102503.21;112121;1262;18654;-35
2024/01/08 07:43:23;;;;;;;;;6.00;6.00;;;;;21.17;40.41;102506.67;112058;1247;20867;-37
2024/01/08 07:45:50;;;;;;;;;6.67;6.67;;;;;21.18;40.48;102507.63;112168;1253;19626;-37
2024/01/08 07:48:17;;;;;;;;;7.00;7.00;;;;;21.17;40.39;102517.58;112091;1260;18612;-35
2024/01/08 07:50:45;;;;;;;;;6.50;5.00;;;;;21.25;40.02;102514.02;112017;1246;20781;-35
2024/01/08 07:53:12;;;;;;;;;7.50;7.00;;;;;21.40;39.84;102519.77;112072;1246;19588;-35
2024/01/08 07:55:39;;;;;;;;;5.00;5.00;;;;;21.31;39.94;102520.94;112044;1262;20476;-35
2024/01/08 07:58:07;;;;;;;;;4.00;4.00;;;;;21.41;39.82;102522.23;112062;1246;19332;-35
2024/01/08 08:00:34;;;;;;;;;6.00;5.00;;;;;21.40;40.20;102526.68;112064;1262;18855;-35
2024/01/08 08:03:01;;;;;;;;;6.00;6.00;;;;;21.38;40.45;102530.52;112134;1260;18571;-34
2024/01/08 08:05:28;;;;;;;;;5.00;5.00;;;;;21.32;40.79;102537.98;112183;1247;20800;-34
2024/01/08 08:07:56;;;;;;;;;6.00;5.00;;;;;21.33;40.75;102544.60;112171;1247;19713;-36
2024/01/08 08:10:23;;;;;;;;;7.33;7.00;;;;;21.37;40.49;102548.08;112259;1244;20124;-37
2024/01/08 08:12:51;;;;;;;;;4.00;4.00;;;;;21.42;40.45;102548.71;112136;1244;20758;-34
2024/01/08 08:15:19;;;;;;;;;4.00;4.00;;;;;21.43;40.72;102550.42;112253;1244;19820;-35
2024/01/08 08:17:46;;;;;;;;;7.00;5.50;;;;;21.40;41.05;102555.75;112158;1252;21197;-35
2024/01/08 08:20:13;;;;;;;;;7.33;6.00;;;;;21.41;41.10;102558.88;112132;1246;19460;-35
2024/01/08 08:22:41;;;;;;;;;5.00;5.00;;;;;21.46;40.88;102561.36;112030;1259;19614;-35
2024/01/08 08:25:08;;;;;;;;;9.00;7.00;;;;;21.57;40.60;102558.23;112216;1244;21252;-36
2024/01/08 08:27:35;;;;;;;;;7.00;7.00;;;;;21.53;41.36;102556.36;112161;1244;20846;-35
2024/01/08 08:30:03;;;;;;;;;10.00;7.00;;;;;21.53;41.55;102560.30;112254;1260;18560;-35
2024/01/08 08:32:30;;;;;;;;;7.50;7.00;;;;;21.61;40.96;102566.36;112179;1244;20109;-35
2024/01/08 08:34:57;;;;;;;;;5.50;5.50;;;;;21.65;41.12;102562.70;112147;1260;19340;-36
2024/01/08 08:37:25;;;;;;;;;8.00;7.00;;;;;21.70;40.77;102569.92;112226;1244;18404;-37
2024/01/08 08:39:52;;;;;;;;;7.00;7.00;;;;;21.75;40.20;102578.13;112180;1244;20119;-36
2024/01/08 08:42:19;;;;;;;;;5.50;5.00;;;;;21.79;40.86;102582.07;112186;1246;20747;-36
2024/01/08 08:44:46;;;;;;;;;7.50;7.00;;;;;21.79;41.07;102588.99;112187;1244;19563;-36
2024/01/08 08:47:14;;;;;;;;;7.33;7.00;;;;;21.87;40.71;102593.89;112268;1244;20025;-35
2024/01/08 08:49:41;;;;;;;;;7.00;7.00;;;;;21.91;40.95;102592.59;112012;1262;21717;-35
2024/01/08 08:52:08;;;;;;;;;5.00;5.00;;;;;21.91;40.51;102593.98;112022;1246;19609;-37
2024/01/08 08:54:36;;;;;;;;;6.50;6.50;;;;;21.94;40.44;102600.99;112149;1260;18810;-38
2024/01/08 08:57:03;;;;;;;;;7.00;7.00;;;;;22.00;40.52;102600.73;112210;1244;20357;-37
2024/01/08 08:59:30;;;;;;;;;5.00;5.00;;;;;22.00;40.61;102602.24;112204;1253;18277;-37
2024/01/08 09:01:58;;;;;;;;;5.00;5.00;;;;;22.00;40.54;102604.77;112146;1260;18583;-36
2024/01/08 09:04:25;;;;;;;;;8.00;7.00;;;;;22.04;40.11;102607.34;112196;1244;19343;-38
2024/01/08 09:06:53;;;;;;;;;5.00;5.00;;;;;21.99;40.29;102609.23;112149;1247;19643;-36
2024/01/08 09:09:20;;;;;;;;;19.00;17.00;;;;;21.99;40.15;102620.07;112229;1260;19957;-37
2024/01/08 09:11:47;;;;;;;;;22.00;16.00;;;;;21.75;36.05;102617.09;112145;1260;19300;-36
2024/01/08 09:14:15;;;;;;;;;13.00;13.00;;;;;21.75;35.02;102624.86;112066;1254;20281;-35
2024/01/08 09:16:42;;;;;;;;;11.00;11.00;;;;;21.74;35.07;102628.35;112062;1257;20080;-36
2024/01/08 09:19:09;;;;;;;;;22.00;20.00;;;;;21.77;36.17;102624.62;112062;1246;20767;-36
2024/01/08 09:21:37;;;;;;;;;47.00;37.00;;;;;21.81;36.56;102620.63;112011;1248;20048;-36
2024/01/08 09:24:05;;;;;;;;;63.50;49.00;;;;;21.79;37.03;102617.62;112070;1246;20283;-37
2024/01/08 09:26:32;;;;;;;;;80.67;59.00;;;;;21.82;37.33;102623.42;112021;1246;20767;-37
2024/01/08 09:29:00;;;;;;;;;102.00;74.00;;;;;21.79;37.48;102614.48;112072;1246;21440;-35
2024/01/08 09:31:27;;;;;;;;;93.00;71.00;;;;;21.84;37.46;102623.48;112121;1247;20143;-36
2024/01/08 09:33:54;;;;;;;;;94.00;70.00;;;;;21.84;37.79;102628.80;112184;1260;20701;-35
2024/01/08 09:36:21;;;;;;;;;90.00;65.50;;;;;21.88;37.55;102635.50;112134;1245;19961;-36
2024/01/08 09:38:49;;;;;;;;;90.00;63.00;;;;;21.89;37.75;102634.52;112212;1245;20207;-35
2024/01/08 09:41:16;;;;;;;;;77.00;59.00;;;;;21.90;37.73;102632.99;112147;1260;22230;-36
2024/01/08 09:43:43;;;;;;;;;72.00;56.50;;;;;21.89;38.14;102638.80;112282;1245;19953;-37
2024/01/08 09:46:11;;;;;;;;;69.00;53.00;;;;;21.88;37.98;102640.41;112184;1244;20119;-36
2024/01/08 09:48:38;;;;;;;;;69.00;51.00;;;;;21.86;38.47;102642.48;112261;1260;19384;-37
2024/01/08 09:51:06;;;;;;;;;58.00;44.00;;;;;21.93;38.17;102644.20;112177;1244;18599;-36
2024/01/08 09:53:33;;;;;;;;;48.50;43.00;;;;;21.93;38.69;102638.95;112292;1247;20209;-38
2024/01/08 09:56:02;;;;;;;;;50.00;43.50;;;;;21.87;38.77;102635.73;112228;1244;19334;-36
2024/01/08 09:58:29;;;;;;;;;46.00;41.00;;;;;21.97;38.54;102629.41;112239;1244;18728;-36
2024/01/08 10:00:57;;;;;;;;;45.00;40.50;;;;;21.98;38.80;102633.30;112126;1247;20445;-36
2024/01/08 10:03:26;;;;;;;;;40.67;32.00;;;;;22.01;38.84;102630.99;112253;1245;20748;-36
2024/01/08 10:05:53;;;;;;;;;42.00;35.00;;;;;22.02;38.93;102635.02;112280;1245;20263;-36
2024/01/08 10:08:21;;;;;;;;;37.67;28.67;;;;;21.97;39.21;102638.86;112173;1253;20147;-35
2024/01/08 10:10:48;;;;;;;;;36.00;28.50;;;;;21.99;38.83;102630.27;112322;1260;19506;-36
2024/01/08 10:13:15;;;;;;;;;38.00;32.00;;;;;21.86;38.62;102623.98;112199;1253;21250;-35
2024/01/08 10:15:43;;;;;;;;;29.00;26.00;;;;;21.71;39.25;102628.91;112013;1247;20162;-35
2024/01/08 10:18:11;;;;;;;;;22.00;21.50;;;;;21.61;39.82;102629.96;112160;1260;19461;-35
2024/01/08 10:20:38;;;;;;;;;26.00;23.50;;;;;21.58;39.76;102626.65;112232;1254;20155;-36
2024/01/08 10:23:06;;;;;;;;;27.00;20.00;;;;;21.56;39.65;102627.80;112133;1254;20400;-36
2024/01/08 10:25:33;;;;;;;;;22.00;20.00;;;;;21.57;39.58;102631.27;112202;1261;19335;-38
2024/01/08 10:28:00;;;;;;;;;26.00;22.00;;;;;21.56;39.94;102628.77;112188;1247;20042;-35
2024/01/08 10:30:28;;;;;;;;;23.00;19.00;;;;;21.58;39.52;102627.19;112103;1247;20547;-36
2024/01/08 10:32:55;;;;;;;;;21.00;17.50;;;;;21.63;39.25;102623.35;112207;1260;19370;-36
2024/01/08 10:35:23;;;;;;;;;22.00;19.00;;;;;21.57;39.49;102624.02;112086;1260;20016;-36
2024/01/08 10:37:50;;;;;;;;;22.67;16.00;;;;;21.53;39.52;102623.35;112274;1260;18847;-38
2024/01/08 10:40:17;;;;;;;;;15.00;14.33;;;;;21.50;39.42;102620.38;112033;1247;20781;-35
2024/01/08 10:42:45;;;;;;;;;14.00;13.00;;;;;21.48;39.46;102624.14;112163;1246;20057;-36
2024/01/08 10:45:12;;;;;;;;;17.00;16.00;;;;;21.47;39.28;102623.98;112036;1262;20023;-37
2024/01/08 10:47:39;;;;;;;;;17.00;15.00;;;;;21.43;39.65;102624.96;112170;1246;20840;-36
2024/01/08 10:50:07;;;;;;;;;21.33;15.33;;;;;21.46;39.43;102627.78;112044;1246;21374;-36
2024/01/08 10:52:35;;;;;;;;;20.00;19.00;;;;;21.47;39.11;102625.41;112036;1246;20130;-37
2024/01/08 10:55:02;;;;;;;;;20.00;16.00;;;;;21.46;39.20;102624.58;112080;1246;20725;-39
2024/01/08 10:57:29;;;;;;;;;22.50;16.50;;;;;21.43;39.14;102632.26;112165;1253;18613;-36
2024/01/08 10:59:57;;;;;;;;;21.00;18.50;;;;;21.39;39.38;102635.77;112118;1246;21208;-38
2024/01/08 11:02:25;;;;;;;;;23.50;19.00;;;;;21.38;39.34;102635.33;112043;1254;20667;-36
2024/01/08 11:04:52;;;;;;;;;15.00;14.00;;;;;21.36;39.42;102626.46;112061;1248;19971;-37
2024/01/08 11:07:20;;;;;;;;;16.00;14.00;;;;;21.37;39.18;102626.16;112063;1246;20019;-37
2024/01/08 11:09:47;;;;;;;;;19.00;17.00;;;;;21.39;39.06;102632.17;112033;1246;20773;-39
2024/01/08 11:12:14;;;;;;;;;19.00;17.00;;;;;21.34;38.82;102630.14;112032;1261;18569;-37
2024/01/08 11:14:42;;;;;;;;;17.50;16.00;;;;;21.41;38.81;102626.61;112039;1246;20064;-35